Gibsonton, Florida
Current Conditions -  °F | °C
As of 7:58 AM on Thursday 30 Oct 2014 (Local Time) from KMCF Reporting Station
Clear Clear  
Wind Chill: 68°   Ceiling: Unl
Heat Index: 68°   Visibility: 10mi
Dew Point: 67°   Wind: 3mph
Humidity: 99%   Direction: 60°ENE
Pressure: 29.97"   Gusts: NA
Location:  27.85°N, 82.38°W
Report Text: KMCF 301158Z AUTO 06003KT 10SM CLR 20/20 A2997 RMK AO2 SLP152 T01980196 10205 20188 53005
Loading
Personal Weather Stations






























Interactive Weather Map
Tropical Storm Tracking
New forecast layout! Learn more

10-Day Weather Forecast

Advertisements
Track Severe Weather on mobile